Aeroporto :
LOGIN :

Iscrizione | Disclaimer

   EN    FR    IT 

 










Sommario :    VFR   VFR Marginale   IFR   IFR Intensivo   IFR Molto Intensivo
Visibilità : 
Base nubi : 
>= 8 km
>= 3000ft
5 / 8 km
1000 / 3000 ft
1500m / 5 km
500 / 1000 ft
800 / 1500m
200 / 500 ft
< 800m
< 200 ft
Simboli :   Temporali  Nebbia  Neve Forte  Precipitazioni Forti  Vento > 20 kt
SIGMETs :   Varie  Temporali  Ghiacco  Turbolenza  Onda orograficha  Ceneri Vulcaniche






- Altitudine del aeroporto : 183 ft
- Codice IATA : HAJ


EDDV - Hanover/Langenhagen Int.

ULTIMO METAR :
  • 031820Z 32004KT 9999 -RA BKN045 07/01 Q1017 NOSIG

METARs OBSOLETI :
  • 031750Z 33003KT 9999 BKN046 08/00 Q1017 NOSIG
  • 031720Z 30005KT CAVOK 08/01 Q1016 NOSIG
  • 031650Z 29007KT CAVOK 09/01 Q1016 NOSIG
  • 031620Z 29008KT CAVOK 09/00 Q1016 NOSIG
  • 031550Z 28009KT 250V310 CAVOK 09/M00 Q1015 NOSIG

TAF TAF EDDV
Valido dal 03 a 18 ore il 04 a 18 ore UTC


031700Z 0318/0418 29008KT CAVOK
BECMG 0318/0320 23004KT
BECMG 0414/0416 15005KT



MetMap, La meteo Aeronautica in un colpo d'occhio ! - Copyright ORBIFLY Dicembre 2007 - Disclaimer

ORBIFLY MET'MAP TEAM :

Programmazione e sviluppo : Alexandra Zaïnal
Concezione : Baudouin d'Aumeries
Aiuto per la programmazione : Marc-Olivier Méhu
Supporto tecnico e logistico : Manuel Goepfert
Aiuto per la traduzione : Arnaldo La Scala

Contatto : metmap@orbifly.com




FONTI E CREDITI :

   NOAA